SVBC/BLA METAR and TAF weather

Enter ICAO airport designator
Station Type Date Time Source
SVBC METAR 2020/04/05 15:02 UTC NOAA

SVBC 051502Z AUTO 35007KT NCD 29/25 Q1013


Station Type Date Time Source
SVBC Decoded METAR 2020/04/05 15:02 UTC NOAA

Barcelona, Venezuela (SVBC) 10-07N 064-41W 7M
Apr 05, 2020 - 11:02 AM EDT / 2020.04.05 1502 UTC
Wind: from the N (350 degrees) at 8 MPH (7 KT):0
Temperature: 84 F (29 C)
Dew Point: 77 F (25 C)
Relative Humidity: 79%
Pressure (altimeter): 29.91 in. Hg (1013 hPa)
ob: SVBC 051502Z AUTO 35007KT NCD 29/25 Q1013
cycle: 15

Station Type Date Time Source
SVBC TAF 2020/04/04 12:03 UTC NOAA

TAF TAF SVBC 041000Z 0412/0512 0412/0512 22007KT 9000 -DZ BKN010 TX30/19Z TN24/08Z
BECMG 0412/0416 15004KT 9999 BKN016

Example: see airport list